createdAt,value
2023-05-20T00:02:03.001Z,3.00
2023-05-20T00:07:04.552Z,4.70
2023-05-20T00:12:05.943Z,3.53
2023-05-20T00:17:06.735Z,4.55
2023-05-20T00:22:07.849Z,4.43
2023-05-20T00:27:08.623Z,6.43
2023-05-20T00:32:09.932Z,4.28
2023-05-20T00:37:10.728Z,3.53
2023-05-20T00:42:18.834Z,4.28
2023-05-20T00:47:25.928Z,4.62
2023-05-20T00:52:30.612Z,5.30
2023-05-20T00:57:31.430Z,4.37
2023-05-20T01:02:32.541Z,4.93
2023-05-20T01:07:33.608Z,6.28
2023-05-20T01:12:39.248Z,4.12
2023-05-20T01:17:45.900Z,6.20
2023-05-20T01:22:48.311Z,4.87
2023-05-20T01:27:50.221Z,7.83
2023-05-20T01:32:56.990Z,5.62
2023-05-20T01:37:59.290Z,10.65
2023-05-20T01:43:02.011Z,5.63
2023-05-20T01:48:03.400Z,5.30
2023-05-20T01:53:05.336Z,3.45
2023-05-20T01:58:06.124Z,7.15
2023-05-20T02:03:07.265Z,5.97
2023-05-20T02:08:10.149Z,5.62
2023-05-20T02:13:12.015Z,7.22
2023-05-20T02:18:17.684Z,5.28
2023-05-20T02:23:18.686Z,5.87
2023-05-20T02:28:19.555Z,4.95
2023-05-20T02:33:20.607Z,4.22
2023-05-20T02:38:21.499Z,7.47
2023-05-20T02:43:22.364Z,4.40
2023-05-20T02:48:23.198Z,7.45
2023-05-20T02:53:24.359Z,10.82
2023-05-20T02:58:25.470Z,7.25
2023-05-20T03:03:26.830Z,5.45
2023-05-20T03:08:27.732Z,5.78
2023-05-20T03:13:28.865Z,6.80
2023-05-20T03:18:32.573Z,5.25
2023-05-20T03:23:34.464Z,4.62
2023-05-20T03:28:35.581Z,5.85
2023-05-20T03:33:36.475Z,5.57
2023-05-20T03:38:37.783Z,5.65
2023-05-20T03:43:38.847Z,7.40
2023-05-20T03:48:40.370Z,6.97
2023-05-20T03:53:41.492Z,6.32
2023-05-20T03:58:43.566Z,9.93
2023-05-20T04:03:44.667Z,6.70
2023-05-20T04:08:45.721Z,5.32
2023-05-20T04:13:46.639Z,6.30
2023-05-20T04:18:48.256Z,12.05
2023-05-20T04:23:49.910Z,7.62
2023-05-20T04:28:51.149Z,7.35
2023-05-20T04:33:53.087Z,4.82
2023-05-20T04:38:57.084Z,6.32
2023-05-20T04:43:59.690Z,8.40
2023-05-20T04:49:00.599Z,8.67
2023-05-20T04:54:01.691Z,6.57
2023-05-20T04:59:03.370Z,8.35
2023-05-20T05:04:04.734Z,7.68
2023-05-20T05:09:05.649Z,6.97
2023-05-20T05:14:06.615Z,6.53
2023-05-20T05:19:10.329Z,6.30
2023-05-20T05:24:13.222Z,7.87
2023-05-20T05:29:14.867Z,9.48
2023-05-20T05:34:15.960Z,6.12
2023-05-20T05:39:16.843Z,7.70
2023-05-20T05:44:18.627Z,7.32
2023-05-20T05:49:20.746Z,10.98
2023-05-20T05:54:22.097Z,8.60
2023-05-20T05:59:23.881Z,8.07
2023-05-20T06:04:25.169Z,9.65
2023-05-20T06:09:28.726Z,8.70
2023-05-20T06:14:31.842Z,7.30
2023-05-20T06:19:33.022Z,7.45
2023-05-20T06:24:34.601Z,5.37
2023-05-20T06:29:36.240Z,8.40
2023-05-20T06:34:37.158Z,9.15
2023-05-20T06:39:38.116Z,8.27
2023-05-20T06:44:39.015Z,9.13
2023-05-20T06:49:49.472Z,10.15
2023-05-20T06:54:50.466Z,6.70
2023-05-20T06:59:52.244Z,9.27
2023-05-20T07:04:54.413Z,9.13
2023-05-20T07:09:56.935Z,8.60
2023-05-20T07:14:57.801Z,7.90
2023-05-20T07:19:59.737Z,11.55
2023-05-20T07:25:01.580Z,9.20
2023-05-20T07:30:03.545Z,7.93
2023-05-20T07:35:08.505Z,6.60
2023-05-20T07:40:10.143Z,9.00
2023-05-20T07:50:13.406Z,8.68
2023-05-20T07:55:15.989Z,7.80
2023-05-20T08:00:17.373Z,8.00
2023-05-20T08:05:18.210Z,9.32
2023-05-20T08:10:20.316Z,7.97
2023-05-20T08:15:21.730Z,8.60
2023-05-20T08:20:23.165Z,14.85
2023-05-20T08:25:26.879Z,7.35
2023-05-20T08:30:28.297Z,6.15
2023-05-20T08:35:29.403Z,6.55
2023-05-20T08:40:30.877Z,7.37
2023-05-20T08:45:33.589Z,6.93
2023-05-20T08:50:38.457Z,8.93
2023-05-20T08:55:45.976Z,8.57
2023-05-20T09:00:46.830Z,7.72
2023-05-20T09:05:48.024Z,9.73
2023-05-20T09:10:51.881Z,7.57
2023-05-20T09:15:52.963Z,8.73
2023-05-20T09:20:54.380Z,9.48
2023-05-20T09:25:55.306Z,7.45
2023-05-20T09:30:59.274Z,9.10
2023-05-20T09:36:04.289Z,7.97
2023-05-20T09:41:07.849Z,11.88
2023-05-20T09:46:10.100Z,9.38
2023-05-20T09:51:12.641Z,9.37
2023-05-20T09:56:14.452Z,9.07
2023-05-20T10:01:15.468Z,8.77
2023-05-20T10:07:06.235Z,7.20
2023-05-20T10:12:45.355Z,9.63
2023-05-20T10:20:32.223Z,9.88
2023-05-20T10:25:33.672Z,7.95
2023-05-20T10:30:35.434Z,13.32
2023-05-20T10:35:47.457Z,12.20
2023-05-20T10:40:48.310Z,11.23
2023-05-20T10:45:54.970Z,10.18
2023-05-20T10:50:59.014Z,10.23
2023-05-20T10:55:59.892Z,12.20
2023-05-20T11:01:02.592Z,12.65
2023-05-20T11:06:16.054Z,10.85
2023-05-20T11:11:18.508Z,12.32
2023-05-20T11:16:22.446Z,11.68
2023-05-20T11:21:23.306Z,11.90
2023-05-20T11:26:24.127Z,11.05
2023-05-20T11:31:25.556Z,8.57
2023-05-20T11:36:28.418Z,11.15
2023-05-20T11:46:30.530Z,10.98
2023-05-20T11:51:31.488Z,12.45
2023-05-20T11:56:36.700Z,10.52
2023-05-20T12:01:42.598Z,11.60
2023-05-20T12:06:43.520Z,13.15
2023-05-20T12:11:44.881Z,9.02
2023-05-20T12:16:45.712Z,11.68
2023-05-20T12:21:46.589Z,14.20
2023-05-20T12:26:47.502Z,9.05
2023-05-20T12:31:48.489Z,10.18
2023-05-20T12:36:49.323Z,11.60
2023-05-20T12:41:50.444Z,9.25
2023-05-20T12:46:54.265Z,10.18
2023-05-20T12:51:55.158Z,9.00
2023-05-20T12:56:56.446Z,9.13
2023-05-20T13:01:57.602Z,9.98
2023-05-20T13:06:58.857Z,9.10
2023-05-20T13:12:02.929Z,8.90
2023-05-20T13:17:04.347Z,8.60
2023-05-20T13:22:06.130Z,11.60
2023-05-20T13:27:07.536Z,9.85
2023-05-20T13:32:08.453Z,10.90
2023-05-20T13:37:09.302Z,9.27
2023-05-20T13:42:10.270Z,9.75
2023-05-20T13:47:11.109Z,9.90
2023-05-20T13:52:12.005Z,12.85
2023-05-20T13:57:12.848Z,11.52
2023-05-20T14:02:14.015Z,11.05
2023-05-20T14:07:15.029Z,11.85
2023-05-20T14:12:16.004Z,10.70
2023-05-20T14:17:17.075Z,14.73
2023-05-20T14:22:19.214Z,11.20
2023-05-20T14:27:20.208Z,10.63
2023-05-20T14:32:21.286Z,11.02
2023-05-20T14:37:22.324Z,12.27
2023-05-20T14:42:23.303Z,11.32
2023-05-20T14:47:25.368Z,11.25
2023-05-20T14:52:26.488Z,14.77
2023-05-20T14:57:27.512Z,11.12
2023-05-20T15:02:28.642Z,11.07
2023-05-20T15:07:29.683Z,13.43
2023-05-20T15:12:30.540Z,13.35
2023-05-20T15:17:31.417Z,12.05
2023-05-20T15:22:32.510Z,10.70
2023-05-20T15:27:33.351Z,10.57
2023-05-20T15:32:34.689Z,11.98
2023-05-20T15:37:35.714Z,11.93
2023-05-20T15:42:36.586Z,12.23
2023-05-20T15:47:40.421Z,11.43
2023-05-20T15:52:41.826Z,13.13
2023-05-20T15:57:42.682Z,10.60
2023-05-20T16:02:43.907Z,14.52
2023-05-20T16:07:46.075Z,11.95
2023-05-20T16:12:47.309Z,12.60
2023-05-20T16:17:48.181Z,12.90
2023-05-20T16:22:49.458Z,11.70
2023-05-20T16:27:50.527Z,11.93
2023-05-20T16:32:51.643Z,10.70
2023-05-20T16:37:52.498Z,9.77
2023-05-20T16:42:53.607Z,11.60
2023-05-20T16:47:55.663Z,13.65
2023-05-20T16:52:58.248Z,10.73
2023-05-20T16:57:59.072Z,11.55
2023-05-20T17:03:00.400Z,12.75
2023-05-20T17:08:01.368Z,12.93
2023-05-20T17:13:03.325Z,14.02
2023-05-20T17:18:04.321Z,13.52
2023-05-20T17:23:05.340Z,16.95
2023-05-20T17:28:06.226Z,11.27
2023-05-20T17:33:07.311Z,12.73
2023-05-20T17:38:08.210Z,13.23
2023-05-20T17:43:09.129Z,13.52
2023-05-20T17:48:11.725Z,12.27
2023-05-20T17:58:13.753Z,13.25
2023-05-20T18:03:14.820Z,14.52
2023-05-20T18:08:18.324Z,16.25
2023-05-20T18:13:19.209Z,14.25
2023-05-20T18:18:20.091Z,15.60
2023-05-20T18:23:20.901Z,13.70
2023-05-20T18:28:21.707Z,13.23
2023-05-20T18:33:23.721Z,13.68
2023-05-20T18:38:25.135Z,11.85
2023-05-20T18:43:26.526Z,16.98
2023-05-20T18:48:27.626Z,14.87
2023-05-20T18:53:28.635Z,16.45
2023-05-20T18:58:29.911Z,16.10
2023-05-20T19:03:30.908Z,15.48
2023-05-20T19:08:31.765Z,14.75
2023-05-20T19:13:33.555Z,16.95
2023-05-20T19:18:34.422Z,17.27
2023-05-20T19:23:35.567Z,19.12
2023-05-20T19:28:36.392Z,18.83
2023-05-20T19:33:37.567Z,17.83
2023-05-20T19:38:38.387Z,15.93
2023-05-20T19:43:40.030Z,18.33
2023-05-20T19:48:41.441Z,17.50
2023-05-20T19:53:42.279Z,20.20
2023-05-20T19:58:43.114Z,20.15
2023-05-20T20:03:45.370Z,21.83
2023-05-20T20:08:46.292Z,21.50
2023-05-20T20:13:47.172Z,18.52
2023-05-20T20:18:47.997Z,23.15
2023-05-20T20:23:48.881Z,21.50
2023-05-20T20:28:49.845Z,20.85
2023-05-20T20:33:51.475Z,21.27
2023-05-20T20:38:52.292Z,21.98
2023-05-20T20:43:53.762Z,23.38
2023-05-20T20:48:54.580Z,24.77
2023-05-20T20:53:55.479Z,23.90
2023-05-20T20:58:56.406Z,22.30
2023-05-20T21:03:57.905Z,22.90
2023-05-20T21:09:01.258Z,24.55
2023-05-20T21:14:02.053Z,26.45
2023-05-20T21:19:03.176Z,21.48
2023-05-20T21:24:04.289Z,26.08
2023-05-20T21:29:06.527Z,23.83
2023-05-20T21:34:07.466Z,24.70
2023-05-20T21:39:08.392Z,25.48
2023-05-20T21:44:09.241Z,29.65
2023-05-20T21:49:10.106Z,24.92
2023-05-20T21:54:10.928Z,24.42
2023-05-20T21:59:12.141Z,23.65
2023-05-20T22:04:13.117Z,26.65
2023-05-20T22:09:14.108Z,28.20
2023-05-20T22:14:15.296Z,27.73
2023-05-20T22:19:16.900Z,27.95
2023-05-20T22:24:17.988Z,31.30
2023-05-20T22:29:19.110Z,29.30
2023-05-20T22:34:19.993Z,30.00
2023-05-20T22:39:21.277Z,28.90
2023-05-20T22:44:22.070Z,29.65
2023-05-20T22:49:25.910Z,26.10
2023-05-20T22:54:26.755Z,28.17
2023-05-20T22:59:30.371Z,28.55
2023-05-20T23:04:31.552Z,31.25
2023-05-20T23:09:32.741Z,29.52
2023-05-20T23:14:33.793Z,27.10
2023-05-20T23:19:34.753Z,31.25
2023-05-20T23:24:35.664Z,31.42
2023-05-20T23:29:37.026Z,30.52
2023-05-20T23:34:37.950Z,32.80
2023-05-20T23:39:38.792Z,32.35
2023-05-20T23:44:39.979Z,30.55
2023-05-20T23:49:40.824Z,27.50
2023-05-20T23:54:41.633Z,32.03
2023-05-20T23:59:42.929Z,31.92
